Robertson, Wyoming
Current Conditions -  °F | °C
As of 7:35 AM on Monday 20 Oct 2014 (Local Time) from KFBR Reporting Station
Clear Clear  
Wind Chill: 42°   Ceiling: Unl
Heat Index: 42°   Visibility: NA
Dew Point: 29°   Wind: 0mph
Humidity: 61%   Direction: NA
Pressure: 30.21"   Gusts: NA
Location:  41.19°N, 110.41°W
Report Text: KFBR 201335Z AUTO 00000KT CLR 06/M01 A3021 RMK AO2 T00561014 PWINO
Loading
Personal Weather Stations






























Interactive Weather Map
Tropical Storm Tracking
New forecast layout! Learn more

10-Day Weather Forecast

Advertisements
Track Severe Weather on mobile